Time;durP1;ratioP1;P1;durP2;ratioP2;P2;SDS_P1;SDS_P2;PMS_P1;PMS_P2;Temp;Humidity;BMP_temperature;BMP_pressure;BME280_temperature;BME280_humidity;BME280_pressure;Samples;Min_cycle;Max_cycle;Signal;HPM_P1;HPM_P2
2023/08/18 00:01:42;;;;;;;269.92;242.70;;;27.10;99.90;;;;;;5033534;28;20361;-72
2023/08/18 00:04:08;;;;;;;160.73;143.75;;;27.00;99.90;;;;;;5033456;28;20030;-72
2023/08/18 00:06:35;;;;;;;144.65;129.68;;;27.10;99.90;;;;;;5033669;28;20024;-71
2023/08/18 00:09:04;;;;;;;123.35;110.43;;;27.00;99.90;;;;;;5033445;28;20018;-72
2023/08/18 00:11:30;;;;;;;133.05;119.90;;;27.10;99.90;;;;;;5033486;28;20464;-72
2023/08/18 00:13:57;;;;;;;131.23;118.28;;;27.10;99.90;;;;;;5033536;28;20480;-72
2023/08/18 00:16:23;;;;;;;146.80;132.82;;;27.20;99.90;;;;;;5033331;28;20021;-71
2023/08/18 00:18:50;;;;;;;134.45;121.35;;;27.20;99.90;;;;;;5033409;28;20029;-73
2023/08/18 00:21:16;;;;;;;163.38;146.18;;;27.20;99.90;;;;;;5033433;28;20027;-72
2023/08/18 00:23:44;;;;;;;187.98;170.25;;;27.10;99.90;;;;;;5033217;28;20018;-74
2023/08/18 00:26:10;;;;;;;167.35;151.43;;;27.10;99.90;;;;;;5033254;28;20053;-72
2023/08/18 00:28:38;;;;;;;278.50;251.13;;;27.10;99.90;;;;;;5033314;28;20025;-69
2023/08/18 00:31:04;;;;;;;598.38;537.15;;;27.20;99.90;;;;;;5033167;28;20499;-72
2023/08/18 00:33:31;;;;;;;750.92;674.03;;;27.20;99.90;;;;;;5033161;28;20068;-71
2023/08/18 00:35:58;;;;;;;768.88;685.50;;;27.20;99.90;;;;;;5033058;28;20108;-71
2023/08/18 00:38:24;;;;;;;456.73;408.48;;;27.20;99.90;;;;;;5033120;28;20077;-72
2023/08/18 00:40:51;;;;;;;449.48;402.88;;;27.30;99.90;;;;;;5032953;28;20128;-71
2023/08/18 00:43:17;;;;;;;313.90;282.98;;;27.40;99.90;;;;;;5033169;28;20026;-72
2023/08/18 00:45:44;;;;;;;302.45;273.05;;;27.40;99.90;;;;;;5032364;28;20126;-74
2023/08/18 00:48:11;;;;;;;328.95;296.48;;;27.50;99.90;;;;;;5032931;28;20380;-72
2023/08/18 00:50:38;;;;;;;423.73;381.38;;;27.60;99.90;;;;;;5033106;28;20441;-73
2023/08/18 00:53:04;;;;;;;410.02;367.73;;;27.60;99.90;;;;;;5033052;28;20049;-71
2023/08/18 00:55:31;;;;;;;266.98;241.82;;;27.70;99.90;;;;;;5032872;28;20021;-73
2023/08/18 00:58:00;;;;;;;272.83;247.32;;;27.70;99.90;;;;;;5032929;28;20025;-74
2023/08/18 01:00:28;;;;;;;234.10;212.52;;;27.80;99.90;;;;;;5033025;28;20499;-71
2023/08/18 01:02:54;;;;;;;258.08;234.05;;;27.80;99.90;;;;;;5027846;28;20030;-72
2023/08/18 01:05:21;;;;;;;247.63;224.85;;;27.90;99.90;;;;;;5033090;28;20415;-72
2023/08/18 01:07:47;;;;;;;365.05;326.60;;;28.00;99.90;;;;;;5033051;28;20028;-74
2023/08/18 01:10:14;;;;;;;264.02;236.93;;;28.10;99.90;;;;;;5032706;28;20029;-72
2023/08/18 01:12:46;;;;;;;352.83;309.25;;;28.20;99.90;;;;;;5032878;28;20033;-71
2023/08/18 01:15:28;;;;;;;249.23;225.23;;;28.20;99.90;;;;;;5025036;28;20496;-71
2023/08/18 01:17:58;;;;;;;211.38;188.23;;;28.20;99.90;;;;;;5013071;28;20034;-71
2023/08/18 01:20:26;;;;;;;270.90;245.13;;;28.20;99.90;;;;;;5012992;28;20026;-69
2023/08/18 01:23:01;;;;;;;282.80;255.77;;;28.30;99.90;;;;;;5032429;28;20415;-72
2023/08/18 01:25:28;;;;;;;245.10;222.02;;;28.30;99.90;;;;;;5032790;28;20468;-71
2023/08/18 01:27:57;;;;;;;191.07;173.63;;;28.40;99.90;;;;;;5032629;28;20494;-72
2023/08/18 01:30:41;;;;;;;144.73;128.88;;;28.50;99.90;;;;;;5032762;28;20029;-72
2023/08/18 01:33:16;;;;;;;106.78;95.80;;;28.50;99.90;;;;;;5032671;28;20028;-75
2023/08/18 01:35:44;;;;;;;93.75;84.75;;;28.50;99.90;;;;;;5019038;28;20033;-71
2023/08/18 01:38:13;;;;;;;122.00;110.50;;;28.60;99.90;;;;;;5012731;28;20049;-72
2023/08/18 01:40:41;;;;;;;143.60;130.30;;;28.70;99.90;;;;;;5012700;28;20477;-72
2023/08/18 01:43:07;;;;;;;269.40;242.63;;;28.80;99.90;;;;;;5012788;28;20026;-71
2023/08/18 01:45:36;;;;;;;281.20;254.55;;;28.80;99.90;;;;;;5012844;28;20118;-71
2023/08/18 01:48:03;;;;;;;217.30;197.20;;;28.80;99.90;;;;;;5013120;28;20556;-71
2023/08/18 01:50:29;;;;;;;151.20;137.80;;;28.90;99.90;;;;;;5016345;28;20029;-69
2023/08/18 01:52:56;;;;;;;87.32;78.40;;;29.00;99.90;;;;;;5016233;28;20481;-68
2023/08/18 01:55:22;;;;;;;109.60;99.45;;;29.00;99.90;;;;;;5016040;28;20025;-71
2023/08/18 01:57:49;;;;;;;121.57;110.95;;;29.10;99.90;;;;;;5016190;28;20030;-70
2023/08/18 02:00:15;;;;;;;118.80;108.03;;;29.20;99.90;;;;;;5016228;28;20033;-70
2023/08/18 02:02:42;;;;;;;110.82;100.60;;;29.20;99.90;;;;;;5015854;28;20041;-69
2023/08/18 02:05:09;;;;;;;140.35;127.25;;;29.30;99.90;;;;;;5016096;28;20037;-71
2023/08/18 02:07:35;;;;;;;153.15;139.45;;;29.30;99.90;;;;;;5015922;28;20026;-70
2023/08/18 02:10:02;;;;;;;208.73;189.40;;;29.40;99.90;;;;;;5015821;28;20022;-71
2023/08/18 02:12:29;;;;;;;394.42;354.88;;;29.40;99.90;;;;;;5015953;28;20533;-72
2023/08/18 02:14:55;;;;;;;369.58;332.42;;;29.50;99.90;;;;;;5015871;28;20030;-70
2023/08/18 02:17:22;;;;;;;408.77;367.98;;;29.50;99.90;;;;;;5015676;28;20057;-72
2023/08/18 02:19:48;;;;;;;350.15;315.48;;;29.50;99.90;;;;;;5015706;28;20030;-72
2023/08/18 02:22:15;;;;;;;1129.88;997.55;;;29.60;99.90;;;;;;5015596;28;20026;-70
2023/08/18 02:24:41;;;;;;;1373.68;999.90;;;29.60;99.90;;;;;;5015644;28;20041;-68
2023/08/18 02:27:08;;;;;;;1290.30;999.90;;;29.70;99.90;;;;;;5015435;28;20021;-70
2023/08/18 02:29:34;;;;;;;1088.18;980.80;;;29.80;99.90;;;;;;5015611;28;20025;-70
2023/08/18 02:32:01;;;;;;;633.25;571.17;;;29.80;99.90;;;;;;5015553;28;20465;-70
2023/08/18 02:34:27;;;;;;;609.38;548.97;;;29.90;99.90;;;;;;5015399;28;20033;-71
2023/08/18 02:36:54;;;;;;;707.08;638.45;;;29.90;99.90;;;;;;5015374;28;20038;-72
2023/08/18 02:39:20;;;;;;;760.67;686.50;;;30.00;99.90;;;;;;5015397;28;20022;-69
2023/08/18 02:41:50;;;;;;;665.95;599.83;;;30.00;99.90;;;;;;5015144;28;20502;-71
2023/08/18 02:44:17;;;;;;;831.17;750.42;;;30.10;99.90;;;;;;5015193;28;20034;-71
2023/08/18 02:46:44;;;;;;;742.70;671.67;;;30.10;99.90;;;;;;5015076;28;20014;-71
2023/08/18 02:49:10;;;;;;;397.20;356.63;;;30.10;99.90;;;;;;5015082;28;20025;-71
2023/08/18 02:51:37;;;;;;;420.27;376.95;;;30.20;99.90;;;;;;5015234;28;20028;-70
2023/08/18 02:54:03;;;;;;;406.88;365.98;;;30.20;99.90;;;;;;5015160;28;20109;-71
2023/08/18 02:56:32;;;;;;;355.38;319.55;;;30.20;99.90;;;;;;5014985;28;20029;-70
2023/08/18 02:58:58;;;;;;;301.95;272.83;;;30.30;99.90;;;;;;5014618;28;20677;-70
2023/08/18 03:01:25;;;;;;;405.65;363.38;;;30.30;99.90;;;;;;5014886;28;20029;-69
2023/08/18 03:03:51;;;;;;;363.45;327.00;;;30.40;99.90;;;;;;5014701;28;20412;-71
2023/08/18 03:06:18;;;;;;;403.55;362.40;;;30.50;99.90;;;;;;5014873;28;20053;-71
2023/08/18 03:08:44;;;;;;;383.90;345.48;;;30.50;99.90;;;;;;5014968;28;20105;-70
2023/08/18 03:11:11;;;;;;;326.65;294.52;;;30.60;99.90;;;;;;5014962;28;20044;-69
2023/08/18 03:13:37;;;;;;;315.80;285.58;;;30.60;99.90;;;;;;5031064;28;20056;-69
2023/08/18 03:16:06;;;;;;;198.80;181.45;;;30.70;99.90;;;;;;5034513;28;20508;-67
2023/08/18 03:18:34;;;;;;;207.32;189.00;;;30.70;99.90;;;;;;5034371;28;20036;-67
2023/08/18 03:21:03;;;;;;;311.05;280.65;;;30.70;99.90;;;;;;5034086;28;20026;-69
2023/08/18 03:23:30;;;;;;;390.35;351.00;;;30.80;99.90;;;;;;5034201;28;20079;-68
2023/08/18 03:26:06;;;;;;;328.35;297.23;;;30.90;99.90;;;;;;5034000;28;20029;-67
2023/08/18 03:28:35;;;;;;;285.02;258.35;;;30.90;99.90;;;;;;5034157;28;20025;-68
2023/08/18 03:31:05;;;;;;;326.20;294.90;;;30.90;99.90;;;;;;5034203;28;20029;-67
2023/08/18 03:33:32;;;;;;;347.83;313.35;;;30.90;99.90;;;;;;5034199;28;20032;-68
2023/08/18 03:35:59;;;;;;;328.30;296.75;;;31.00;99.90;;;;;;5034002;28;20079;-67
2023/08/18 03:38:27;;;;;;;322.02;291.30;;;31.00;99.90;;;;;;5033659;28;20046;-69
2023/08/18 03:41:13;;;;;;;359.75;323.90;;;31.10;99.90;;;;;;5034144;28;20022;-67
2023/08/18 03:43:40;;;;;;;280.42;254.30;;;31.20;99.90;;;;;;5033722;28;20391;-68
2023/08/18 03:46:22;;;;;;;181.30;165.18;;;31.20;99.90;;;;;;5032866;28;20484;-68
2023/08/18 03:48:49;;;;;;;139.73;127.55;;;31.40;99.90;;;;;;5032451;28;20361;-68
2023/08/18 03:51:15;;;;;;;175.60;160.48;;;31.30;99.90;;;;;;5033087;28;20013;-69
2023/08/18 03:53:43;;;;;;;159.57;146.02;;;31.40;99.90;;;;;;5033258;28;20388;-67
2023/08/18 03:56:10;;;;;;;162.75;148.85;;;31.50;99.90;;;;;;5033177;28;20022;-68
2023/08/18 03:58:37;;;;;;;161.13;147.20;;;31.50;99.90;;;;;;5032924;28;20068;-67
2023/08/18 04:01:05;;;;;;;141.55;129.35;;;31.50;99.90;;;;;;5031060;28;20025;-69
2023/08/18 04:03:35;;;;;;;131.02;119.65;;;31.60;99.90;;;;;;5032896;28;20026;-69
2023/08/18 04:06:03;;;;;;;97.07;89.03;;;31.70;99.90;;;;;;5032879;28;20074;-65
2023/08/18 04:08:34;;;;;;;85.13;77.50;;;31.80;99.90;;;;;;5033464;28;20028;-69
2023/08/18 04:11:01;;;;;;;87.93;80.32;;;31.80;99.90;;;;;;5032814;28;20047;-70
2023/08/18 04:13:27;;;;;;;107.07;98.22;;;31.80;99.90;;;;;;5033332;28;20148;-69
2023/08/18 04:15:54;;;;;;;118.53;108.35;;;31.80;99.90;;;;;;5033244;28;20610;-69
2023/08/18 04:18:20;;;;;;;103.18;93.85;;;31.80;99.90;;;;;;5033383;28;20026;-72
2023/08/18 04:20:47;;;;;;;53.70;49.03;;;31.90;99.90;;;;;;5033194;28;20447;-71
2023/08/18 04:23:13;;;;;;;50.85;45.72;;;31.90;99.90;;;;;;5029157;28;20100;-71
2023/08/18 04:25:43;;;;;;;197.60;180.55;;;31.90;99.90;;;;;;5032865;28;20034;-70
2023/08/18 04:28:09;;;;;;;257.00;232.73;;;31.90;99.90;;;;;;5027948;28;20025;-70
2023/08/18 04:30:37;;;;;;;308.08;277.88;;;31.90;99.90;;;;;;5029061;28;20018;-71
2023/08/18 04:33:04;;;;;;;287.67;259.77;;;32.00;99.90;;;;;;5031736;28;20025;-70
2023/08/18 04:35:30;;;;;;;249.93;226.10;;;32.20;99.90;;;;;;5032690;28;20017;-66
2023/08/18 04:37:57;;;;;;;184.98;168.98;;;32.20;99.90;;;;;;5032717;28;20045;-71
2023/08/18 04:40:23;;;;;;;167.57;153.07;;;32.10;99.90;;;;;;5030929;28;20097;-67
2023/08/18 04:42:50;;;;;;;180.35;164.40;;;32.10;99.90;;;;;;5031410;28;20017;-70
2023/08/18 04:45:17;;;;;;;204.85;186.98;;;32.20;99.90;;;;;;5032527;28;20022;-70
2023/08/18 04:47:43;;;;;;;196.48;179.07;;;32.20;99.90;;;;;;5032566;28;20041;-71
2023/08/18 04:50:10;;;;;;;213.93;195.13;;;32.20;99.90;;;;;;5031471;28;20530;-71
2023/08/18 04:52:36;;;;;;;194.93;178.10;;;32.20;99.90;;;;;;5031863;28;20472;-71
2023/08/18 04:55:03;;;;;;;204.93;187.05;;;32.30;99.90;;;;;;5032443;28;20021;-72
2023/08/18 04:57:29;;;;;;;168.20;153.43;;;32.40;99.90;;;;;;5032565;28;20013;-71
2023/08/18 04:59:56;;;;;;;187.23;170.55;;;32.40;99.90;;;;;;5032949;28;20017;-70
2023/08/18 05:02:23;;;;;;;221.93;202.02;;;32.30;99.90;;;;;;5015098;28;20093;-71
2023/08/18 05:04:49;;;;;;;247.70;225.35;;;32.20;99.90;;;;;;5033128;28;20022;-75
2023/08/18 05:07:16;;;;;;;297.20;268.98;;;32.20;99.90;;;;;;5027354;28;20575;-71
2023/08/18 05:09:42;;;;;;;292.38;264.67;;;32.10;99.90;;;;;;5032866;28;20029;-71
2023/08/18 05:12:09;;;;;;;285.40;258.17;;;32.30;99.90;;;;;;5032683;28;20017;-70
2023/08/18 05:14:36;;;;;;;469.92;423.42;;;32.30;99.90;;;;;;5029956;28;20104;-69
2023/08/18 05:17:05;;;;;;;518.70;466.77;;;32.30;99.90;;;;;;5032575;28;20071;-70
2023/08/18 05:19:31;;;;;;;443.38;397.98;;;32.30;99.90;;;;;;5032758;28;20026;-70
2023/08/18 05:21:58;;;;;;;368.45;331.55;;;32.30;99.90;;;;;;5033092;28;20056;-69
2023/08/18 05:24:25;;;;;;;296.38;268.52;;;32.20;99.90;;;;;;5034025;28;20028;-69
2023/08/18 05:26:51;;;;;;;320.00;289.25;;;32.20;99.90;;;;;;5036291;28;20018;-70
2023/08/18 05:29:18;;;;;;;417.80;375.17;;;32.20;99.90;;;;;;5036838;28;20116;-69
2023/08/18 05:31:46;;;;;;;473.35;425.58;;;32.20;99.90;;;;;;5036541;28;20067;-69
2023/08/18 05:34:12;;;;;;;516.72;463.75;;;32.20;99.90;;;;;;5036416;28;20026;-70
2023/08/18 05:36:39;;;;;;;403.52;364.13;;;32.20;99.90;;;;;;5036743;28;20532;-68
2023/08/18 05:39:05;;;;;;;149.15;136.77;;;32.20;99.90;;;;;;5030286;28;20021;-68
2023/08/18 05:41:32;;;;;;;86.10;78.50;;;32.20;99.90;;;;;;5016973;28;20058;-67
2023/08/18 05:43:58;;;;;;;99.95;91.43;;;32.30;99.90;;;;;;5016569;28;20021;-68
2023/08/18 05:46:24;;;;;;;90.65;82.47;;;32.40;99.90;;;;;;5034667;28;20025;-68
2023/08/18 05:48:51;;;;;;;104.25;94.70;;;32.40;99.90;;;;;;5036252;28;20025;-72
2023/08/18 05:51:18;;;;;;;43.00;38.90;;;32.50;99.90;;;;;;5036973;28;20020;-67
2023/08/18 05:53:44;;;;;;;193.27;176.35;;;32.60;99.90;;;;;;5036957;28;20476;-68
2023/08/18 05:56:11;;;;;;;514.03;463.40;;;32.70;99.90;;;;;;5036823;28;20030;-68
2023/08/18 05:58:37;;;;;;;844.40;763.00;;;32.80;99.90;;;;;;5036780;28;20029;-68
2023/08/18 06:01:04;;;;;;;884.47;799.67;;;32.90;99.90;;;;;;5033297;28;20095;-69
2023/08/18 06:03:30;;;;;;;555.97;500.08;;;33.00;99.90;;;;;;5036305;28;20017;-66
2023/08/18 06:06:01;;;;;;;488.95;438.98;;;33.10;99.90;;;;;;5036037;28;20032;-68
2023/08/18 06:08:27;;;;;;;500.50;450.23;;;33.10;99.90;;;;;;5033104;28;20021;-68
2023/08/18 06:10:56;;;;;;;415.65;373.17;;;33.10;99.90;;;;;;5035923;28;20472;-66
2023/08/18 06:13:22;;;;;;;417.02;374.90;;;33.10;99.90;;;;;;5035952;28;20029;-67
2023/08/18 06:15:52;;;;;;;202.82;184.65;;;33.10;99.90;;;;;;5035494;28;20029;-67
2023/08/18 06:18:19;;;;;;;357.98;322.65;;;33.10;99.90;;;;;;5036273;28;20405;-68
2023/08/18 06:20:46;;;;;;;138.98;126.53;;;33.20;99.90;;;;;;5028354;28;20152;-68
2023/08/18 06:23:13;;;;;;;226.10;205.82;;;33.10;99.90;;;;;;5016269;28;20056;-71
2023/08/18 06:25:39;;;;;;;415.35;373.55;;;33.10;99.90;;;;;;5015826;28;20103;-72
2023/08/18 06:28:06;;;;;;;429.60;385.05;;;33.10;99.90;;;;;;5016403;28;20530;-75
2023/08/18 06:30:33;;;;;;;435.85;390.60;;;33.00;99.90;;;;;;5018154;28;20069;-70
2023/08/18 06:32:59;;;;;;;409.67;368.52;;;32.90;99.90;;;;;;5035341;28;20476;-70
2023/08/18 06:35:26;;;;;;;410.70;369.30;;;32.90;99.90;;;;;;5034652;28;20391;-70
2023/08/18 06:37:53;;;;;;;202.05;183.85;;;32.80;99.90;;;;;;5035616;28;20523;-72
2023/08/18 06:40:20;;;;;;;242.07;220.23;;;32.70;99.90;;;;;;5018054;28;20495;-72
2023/08/18 06:42:46;;;;;;;343.48;309.75;;;32.70;99.90;;;;;;5035660;28;20506;-71
2023/08/18 06:45:13;;;;;;;296.02;268.10;;;32.60;99.90;;;;;;5035802;28;20029;-72
2023/08/18 06:47:40;;;;;;;191.35;173.98;;;32.60;99.90;;;;;;5035769;28;20148;-71
2023/08/18 06:50:07;;;;;;;238.13;216.27;;;32.60;99.90;;;;;;5035262;28;20484;-72
2023/08/18 06:52:34;;;;;;;279.63;250.43;;;32.60;99.90;;;;;;5035103;28;20108;-69
2023/08/18 06:55:00;;;;;;;186.65;167.65;;;32.70;99.90;;;;;;5035101;28;20021;-70
2023/08/18 06:57:27;;;;;;;139.90;127.53;;;32.70;99.90;;;;;;5033219;28;20025;-73
2023/08/18 06:59:53;;;;;;;138.13;126.18;;;32.60;99.90;;;;;;5030138;28;20025;-74
2023/08/18 07:02:20;;;;;;;173.10;157.77;;;32.60;99.90;;;;;;5020363;28;20100;-73
2023/08/18 07:04:47;;;;;;;145.95;133.48;;;32.60;99.90;;;;;;5034476;28;20538;-71
2023/08/18 07:07:13;;;;;;;182.45;164.80;;;32.60;99.90;;;;;;5034869;28;20060;-68
2023/08/18 07:09:40;;;;;;;229.07;207.27;;;32.60;99.90;;;;;;5035286;28;20045;-71
2023/08/18 07:12:07;;;;;;;303.30;273.45;;;32.60;99.90;;;;;;5033421;28;20021;-71
2023/08/18 07:14:33;;;;;;;242.55;220.05;;;32.60;99.90;;;;;;5034702;28;20018;-72
2023/08/18 07:17:00;;;;;;;242.75;220.73;;;32.70;99.90;;;;;;5027834;28;20076;-74
2023/08/18 07:19:26;;;;;;;321.95;290.33;;;32.70;99.90;;;;;;5020848;28;20033;-69
2023/08/18 07:21:53;;;;;;;252.23;228.43;;;32.70;99.90;;;;;;5014384;28;20026;-73
2023/08/18 07:24:19;;;;;;;204.00;184.43;;;32.80;99.90;;;;;;5014364;28;20147;-72
2023/08/18 07:26:46;;;;;;;182.32;166.15;;;32.80;99.90;;;;;;5014332;28;20022;-68
2023/08/18 07:29:12;;;;;;;189.98;172.55;;;32.80;99.90;;;;;;5024833;28;20044;-71
2023/08/18 07:31:39;;;;;;;168.18;153.25;;;32.80;99.90;;;;;;5033832;28;20009;-71
2023/08/18 07:34:06;;;;;;;157.45;143.60;;;32.80;99.90;;;;;;5033667;28;20064;-68
2023/08/18 07:36:33;;;;;;;130.95;119.43;;;32.80;99.90;;;;;;5033255;28;20033;-69
2023/08/18 07:39:00;;;;;;;117.15;107.13;;;32.80;99.90;;;;;;5033683;28;20471;-68
2023/08/18 07:41:26;;;;;;;134.07;122.00;;;32.80;99.90;;;;;;5033478;28;20048;-68
2023/08/18 07:43:53;;;;;;;97.55;88.90;;;32.90;99.90;;;;;;5033337;28;20128;-71
2023/08/18 07:46:19;;;;;;;44.17;40.00;;;32.80;99.90;;;;;;5032949;28;20476;-71
2023/08/18 07:48:46;;;;;;;39.88;31.67;;;32.80;99.90;;;;;;5030960;28;20472;-69
2023/08/18 07:51:13;;;;;;;47.58;42.75;;;32.80;99.90;;;;;;5033268;28;20029;-72
2023/08/18 07:53:39;;;;;;;50.92;41.63;;;32.80;99.90;;;;;;5033037;28;20032;-72
2023/08/18 07:56:06;;;;;;;40.97;34.33;;;32.80;99.90;;;;;;5033830;28;20060;-71
2023/08/18 07:58:32;;;;;;;39.17;34.65;;;32.80;99.90;;;;;;5033145;28;20384;-68
2023/08/18 08:00:59;;;;;;;37.83;27.30;;;32.80;99.90;;;;;;5031892;28;20371;-67
2023/08/18 08:03:26;;;;;;;34.10;26.25;;;32.80;99.90;;;;;;5031757;28;20018;-67
2023/08/18 08:05:52;;;;;;;32.42;24.15;;;32.80;99.90;;;;;;5033212;28;20017;-68
2023/08/18 08:08:19;;;;;;;35.92;25.45;;;32.80;99.90;;;;;;5033184;28;20321;-67
2023/08/18 08:10:45;;;;;;;39.25;24.42;;;32.80;99.90;;;;;;5033149;28;20025;-68
2023/08/18 08:13:12;;;;;;;36.35;24.65;;;32.60;99.90;;;;;;5029428;28;20076;-67
2023/08/18 08:15:39;;;;;;;39.45;26.48;;;32.50;99.90;;;;;;5033430;28;20096;-67
2023/08/18 08:18:05;;;;;;;39.47;25.38;;;32.50;99.90;;;;;;5033143;28;20032;-69
2023/08/18 08:20:32;;;;;;;37.22;23.20;;;32.40;99.90;;;;;;5032258;28;20056;-69
2023/08/18 08:22:58;;;;;;;38.40;20.05;;;32.40;99.90;;;;;;5033142;28;20472;-68
2023/08/18 08:25:25;;;;;;;31.63;19.25;;;32.30;99.90;;;;;;5033041;28;20026;-68
2023/08/18 08:27:52;;;;;;;33.58;19.10;;;32.30;99.90;;;;;;5032960;28;20028;-69
2023/08/18 08:30:19;;;;;;;33.25;20.77;;;32.30;99.90;;;;;;5033235;28;20370;-69
2023/08/18 08:32:45;;;;;;;32.80;23.25;;;32.40;99.90;;;;;;5033277;28;20017;-68
2023/08/18 08:35:12;;;;;;;39.60;27.48;;;32.40;99.90;;;;;;5033416;28;20035;-70
2023/08/18 08:37:41;;;;;;;37.38;24.92;;;32.50;99.90;;;;;;5032799;28;20077;-69
2023/08/18 08:40:16;;;;;;;40.22;24.83;;;32.50;99.90;;;;;;5032782;28;20337;-69
2023/08/18 08:42:43;;;;;;;42.58;31.35;;;32.50;99.90;;;;;;5030940;28;20495;-69
2023/08/18 08:45:10;;;;;;;45.90;29.58;;;32.60;99.90;;;;;;5032826;28;20024;-69
2023/08/18 08:47:38;;;;;;;44.30;27.48;;;32.60;99.90;;;;;;5012830;28;20354;-69
2023/08/18 08:50:05;;;;;;;36.30;28.50;;;32.60;99.90;;;;;;5032691;28;20030;-65
2023/08/18 08:52:37;;;;;;;41.10;28.35;;;32.60;99.90;;;;;;5032865;28;20495;-71
2023/08/18 08:55:04;;;;;;;38.00;26.00;;;32.50;99.90;;;;;;5033250;28;20492;-70
2023/08/18 08:57:31;;;;;;;31.30;24.98;;;32.50;99.90;;;;;;5034303;28;20495;-70
2023/08/18 09:00:00;;;;;;;46.40;32.53;;;32.50;99.90;;;;;;5036868;28;20021;-72
2023/08/18 09:02:26;;;;;;;63.40;45.80;;;32.40;99.90;;;;;;5018949;28;20121;-70
2023/08/18 09:04:53;;;;;;;47.95;42.92;;;32.50;99.90;;;;;;5036571;28;20023;-70
2023/08/18 09:07:19;;;;;;;68.55;61.28;;;32.50;99.90;;;;;;5036589;28;20017;-67
2023/08/18 09:09:46;;;;;;;50.13;33.45;;;32.50;99.90;;;;;;5036349;28;20495;-71
2023/08/18 09:12:12;;;;;;;50.88;45.60;;;32.50;99.90;;;;;;5030792;28;20480;-73
2023/08/18 09:14:40;;;;;;;77.80;70.68;;;32.40;99.90;;;;;;5022477;28;20021;-66
2023/08/18 09:17:07;;;;;;;116.57;105.82;;;32.40;99.90;;;;;;5021134;28;20048;-73
2023/08/18 09:19:34;;;;;;;99.10;83.78;;;32.40;99.90;;;;;;5036475;28;20026;-72
2023/08/18 09:22:05;;;;;;;83.20;74.35;;;32.50;99.90;;;;;;5036674;28;20276;-74
2023/08/18 09:24:33;;;;;;;140.73;126.03;;;32.50;99.90;;;;;;5037109;28;20488;-73
2023/08/18 09:27:11;;;;;;;81.60;73.57;;;32.50;99.90;;;;;;5036496;28;20022;-71
2023/08/18 09:29:37;;;;;;;53.08;46.97;;;32.50;99.90;;;;;;5026636;28;20045;-72
2023/08/18 09:32:04;;;;;;;90.22;81.85;;;32.60;99.90;;;;;;5031194;28;20018;-72
2023/08/18 09:34:35;;;;;;;131.95;119.18;;;32.60;99.90;;;;;;5030933;28;20037;-72
2023/08/18 09:37:02;;;;;;;64.28;57.90;;;32.60;99.90;;;;;;5035798;28;20297;-73
2023/08/18 09:39:29;;;;;;;59.10;52.97;;;32.50;99.90;;;;;;5033728;28;20109;-73
2023/08/18 09:41:55;;;;;;;57.95;52.08;;;32.40;99.90;;;;;;5035439;28;20018;-71
2023/08/18 09:44:22;;;;;;;63.75;57.70;;;32.40;99.90;;;;;;5035058;28;20444;-71
2023/08/18 09:47:05;;;;;;;103.82;93.88;;;32.40;99.90;;;;;;5033870;28;20047;-72
2023/08/18 09:49:36;;;;;;;161.27;146.02;;;32.40;99.90;;;;;;5033448;28;20040;-73
2023/08/18 09:52:06;;;;;;;93.47;84.57;;;32.50;99.90;;;;;;5034642;28;20024;-73
2023/08/18 09:54:40;;;;;;;267.80;181.55;;;32.40;99.90;;;;;;5033422;28;20438;-71
2023/08/18 09:57:11;;;;;;;509.25;331.50;;;32.40;99.90;;;;;;5035449;28;20578;-71
2023/08/18 09:59:43;;;;;;;828.13;549.08;;;32.30;99.90;;;;;;5034237;28;20080;-72
2023/08/18 10:02:19;;;;;;;902.28;526.35;;;32.30;99.90;;;;;;5034884;28;20064;-73
2023/08/18 10:04:47;;;;;;;154.82;108.07;;;32.30;99.90;;;;;;5032854;28;20067;-72
2023/08/18 10:07:16;;;;;;;426.02;253.70;;;32.30;99.90;;;;;;5035427;28;20061;-69
2023/08/18 10:09:43;;;;;;;610.53;350.05;;;32.30;99.90;;;;;;5034580;28;20021;-75
2023/08/18 10:12:11;;;;;;;635.03;371.10;;;32.30;99.90;;;;;;5035774;28;20017;-74
2023/08/18 10:14:38;;;;;;;508.90;278.08;;;32.30;99.90;;;;;;5033093;28;20198;-70
2023/08/18 10:17:06;;;;;;;945.25;552.42;;;32.30;99.90;;;;;;5035450;28;20022;-73
2023/08/18 10:19:54;;;;;;;628.45;379.95;;;32.30;99.90;;;;;;5035440;28;20032;-72
2023/08/18 10:22:25;;;;;;;469.60;262.63;;;32.30;99.90;;;;;;5033205;28;20093;-75
2023/08/18 10:24:52;;;;;;;496.65;270.17;;;32.30;99.90;;;;;;5035158;28;20469;-71
2023/08/18 10:27:28;;;;;;;211.52;108.50;;;32.30;99.90;;;;;;5035228;28;20464;-70
2023/08/18 10:30:15;;;;;;;283.27;141.80;;;32.20;99.90;;;;;;5034308;28;20507;-73
2023/08/18 10:32:41;;;;;;;149.70;88.82;;;32.10;99.90;;;;;;5034902;28;20028;-74
2023/08/18 10:35:17;;;;;;;171.63;111.75;;;32.10;99.90;;;;;;5017275;28;20534;-73
2023/08/18 10:37:44;;;;;;;138.70;83.03;;;32.00;99.90;;;;;;5028106;28;20056;-74
2023/08/18 10:40:23;;;;;;;198.65;122.22;;;31.90;99.90;;;;;;5021971;28;20124;-74
2023/08/18 10:42:53;;;;;;;155.80;91.35;;;31.90;99.90;;;;;;5034571;28;20022;-74
2023/08/18 10:45:30;;;;;;;123.95;71.85;;;31.90;99.90;;;;;;5033622;28;20416;-68
2023/08/18 10:47:59;;;;;;;155.95;89.75;;;31.90;99.90;;;;;;5033819;28;20061;-66
2023/08/18 10:50:28;;;;;;;200.52;113.28;;;31.80;99.90;;;;;;5034583;28;20040;-68
2023/08/18 10:52:55;;;;;;;341.08;140.45;;;31.80;99.90;;;;;;5034826;28;20025;-67
2023/08/18 10:55:24;;;;;;;266.40;134.52;;;31.70;99.90;;;;;;5034442;28;20059;-68
2023/08/18 10:57:51;;;;;;;170.80;115.88;;;31.70;99.90;;;;;;5031925;28;20059;-67
2023/08/18 11:00:18;;;;;;;104.63;56.00;;;31.70;99.90;;;;;;5030511;28;20026;-66
2023/08/18 11:02:47;;;;;;;75.18;41.05;;;31.70;99.90;;;;;;5032553;28;20021;-68
2023/08/18 11:05:14;;;;;;;56.65;35.03;;;31.70;99.90;;;;;;5032096;28;20159;-70
2023/08/18 11:07:41;;;;;;;73.65;53.13;;;31.60;99.90;;;;;;5032142;28;20498;-66
2023/08/18 11:10:18;;;;;;;116.70;64.38;;;31.50;99.90;;;;;;5031821;28;20112;-67
2023/08/18 11:12:49;;;;;;;62.40;41.05;;;31.50;99.90;;;;;;5030959;28;20017;-67
2023/08/18 11:15:18;;;;;;;78.55;58.28;;;31.40;99.90;;;;;;5028884;28;20017;-68
2023/08/18 11:17:45;;;;;;;46.67;33.53;;;31.40;99.90;;;;;;5031167;28;20365;-68
2023/08/18 11:20:12;;;;;;;45.03;26.05;;;31.40;99.90;;;;;;5033832;28;20029;-67
2023/08/18 11:22:41;;;;;;;41.17;26.83;;;31.30;99.90;;;;;;5024136;28;20061;-66
2023/08/18 11:25:11;;;;;;;47.85;28.38;;;31.30;99.90;;;;;;5031074;28;20076;-65
2023/08/18 11:27:41;;;;;;;36.75;28.55;;;31.20;99.90;;;;;;5031127;28;20076;-67
2023/08/18 11:30:10;;;;;;;39.75;25.63;;;31.20;99.90;;;;;;5031091;28;20022;-66
2023/08/18 11:32:38;;;;;;;44.00;34.75;;;31.10;99.90;;;;;;5031512;28;20075;-66
2023/08/18 11:35:07;;;;;;;41.75;34.60;;;31.10;99.90;;;;;;5034182;28;20379;-66
2023/08/18 11:37:42;;;;;;;40.40;26.25;;;31.10;99.90;;;;;;5031006;28;20100;-68
2023/08/18 11:40:13;;;;;;;38.42;27.92;;;31.10;99.90;;;;;;5034290;28;20136;-65
2023/08/18 11:42:44;;;;;;;36.83;20.13;;;31.00;99.90;;;;;;5033839;28;20018;-66
2023/08/18 11:45:15;;;;;;;32.85;20.73;;;31.00;99.90;;;;;;5034191;28;20025;-68
2023/08/18 11:47:42;;;;;;;32.63;19.27;;;31.00;99.90;;;;;;5033972;28;20468;-68
2023/08/18 11:50:12;;;;;;;38.85;22.95;;;30.90;99.90;;;;;;5033875;28;20259;-67
2023/08/18 11:52:44;;;;;;;37.72;24.38;;;30.80;99.90;;;;;;5034260;28;20025;-67
2023/08/18 11:55:12;;;;;;;41.20;24.33;;;30.80;99.90;;;;;;5027718;28;20026;-67
2023/08/18 11:57:44;;;;;;;31.92;22.48;;;30.70;99.90;;;;;;5025256;28;20326;-65
2023/08/18 12:00:13;;;;;;;91.97;64.75;;;30.70;99.90;;;;;;5033786;28;20061;-67
2023/08/18 12:02:42;;;;;;;43.08;32.33;;;30.70;99.90;;;;;;5024700;28;20045;-68
2023/08/18 12:05:19;;;;;;;37.85;26.83;;;30.70;99.90;;;;;;5026463;28;20029;-69
2023/08/18 12:07:45;;;;;;;40.17;30.50;;;30.70;99.90;;;;;;5031027;28;20474;-66
2023/08/18 12:10:12;;;;;;;31.30;21.38;;;30.70;99.90;;;;;;5026432;28;20077;-65
2023/08/18 12:12:38;;;;;;;42.85;31.45;;;30.60;99.90;;;;;;5022585;28;20022;-67
2023/08/18 12:15:06;;;;;;;38.63;29.27;;;30.60;99.90;;;;;;5013991;28;20018;-66
2023/08/18 12:17:33;;;;;;;31.52;23.98;;;30.60;99.90;;;;;;5024551;28;20021;-67